sensor_id;sensor_type;location;lat;lon;timestamp;P1;durP1;ratioP1;P2;durP2;ratioP2
37323;SDS011;23205;49.986;18.950;2023-02-11T00:02:52;96.45;;;34.13;;
37323;SDS011;23205;49.986;18.950;2023-02-11T00:07:53;85.65;;;34.13;;
37323;SDS011;23205;49.986;18.950;2023-02-11T00:12:54;95.70;;;35.75;;
37323;SDS011;23205;49.986;18.950;2023-02-11T00:17:55;84.43;;;31.48;;
37323;SDS011;23205;49.986;18.950;2023-02-11T00:22:56;82.00;;;32.60;;
37323;SDS011;23205;49.986;18.950;2023-02-11T00:27:57;88.10;;;30.77;;
37323;SDS011;23205;49.986;18.950;2023-02-11T00:32:58;77.47;;;28.73;;
37323;SDS011;23205;49.986;18.950;2023-02-11T00:37:59;79.88;;;32.13;;
37323;SDS011;23205;49.986;18.950;2023-02-11T00:43:00;93.00;;;35.28;;
37323;SDS011;23205;49.986;18.950;2023-02-11T00:48:01;76.90;;;28.38;;
37323;SDS011;23205;49.986;18.950;2023-02-11T00:53:01;73.45;;;29.30;;
37323;SDS011;23205;49.986;18.950;2023-02-11T00:58:02;76.07;;;30.13;;
37323;SDS011;23205;49.986;18.950;2023-02-11T01:03:03;76.85;;;28.67;;
37323;SDS011;23205;49.986;18.950;2023-02-11T01:08:05;73.13;;;27.27;;
37323;SDS011;23205;49.986;18.950;2023-02-11T01:13:06;72.57;;;28.50;;
37323;SDS011;23205;49.986;18.950;2023-02-11T01:18:07;100.30;;;45.90;;
37323;SDS011;23205;49.986;18.950;2023-02-11T01:23:07;74.72;;;29.13;;
37323;SDS011;23205;49.986;18.950;2023-02-11T01:28:21;64.20;;;26.60;;
37323;SDS011;23205;49.986;18.950;2023-02-11T01:33:23;71.60;;;29.73;;
37323;SDS011;23205;49.986;18.950;2023-02-11T01:38:24;67.55;;;26.65;;
37323;SDS011;23205;49.986;18.950;2023-02-11T01:43:27;72.03;;;25.40;;
37323;SDS011;23205;49.986;18.950;2023-02-11T01:48:35;68.38;;;27.95;;
37323;SDS011;23205;49.986;18.950;2023-02-11T01:53:41;65.70;;;26.87;;
37323;SDS011;23205;49.986;18.950;2023-02-11T01:59:06;75.10;;;26.95;;
37323;SDS011;23205;49.986;18.950;2023-02-11T02:04:12;62.58;;;24.88;;
37323;SDS011;23205;49.986;18.950;2023-02-11T02:09:24;66.88;;;26.25;;
37323;SDS011;23205;49.986;18.950;2023-02-11T02:14:28;65.93;;;27.85;;
37323;SDS011;23205;49.986;18.950;2023-02-11T02:19:44;78.68;;;31.33;;
37323;SDS011;23205;49.986;18.950;2023-02-11T02:40:44;70.65;;;28.88;;
37323;SDS011;23205;49.986;18.950;2023-02-11T02:46:20;77.00;;;29.10;;
37323;SDS011;23205;49.986;18.950;2023-02-11T03:07:11;73.47;;;28.25;;
37323;SDS011;23205;49.986;18.950;2023-02-11T03:12:14;70.20;;;26.40;;
37323;SDS011;23205;49.986;18.950;2023-02-11T03:17:16;84.32;;;37.00;;
37323;SDS011;23205;49.986;18.950;2023-02-11T03:22:26;61.05;;;25.75;;
37323;SDS011;23205;49.986;18.950;2023-02-11T03:27:45;54.88;;;22.17;;
37323;SDS011;23205;49.986;18.950;2023-02-11T03:32:51;58.70;;;22.52;;
37323;SDS011;23205;49.986;18.950;2023-02-11T03:38:00;58.92;;;22.02;;
37323;SDS011;23205;49.986;18.950;2023-02-11T03:48:14;46.28;;;19.15;;
37323;SDS011;23205;49.986;18.950;2023-02-11T03:53:19;53.67;;;21.42;;
37323;SDS011;23205;49.986;18.950;2023-02-11T03:58:22;54.22;;;20.85;;
37323;SDS011;23205;49.986;18.950;2023-02-11T04:03:22;52.78;;;18.63;;
37323;SDS011;23205;49.986;18.950;2023-02-11T04:08:23;40.58;;;16.02;;
37323;SDS011;23205;49.986;18.950;2023-02-11T04:13:24;41.30;;;17.02;;
37323;SDS011;23205;49.986;18.950;2023-02-11T04:18:25;42.78;;;16.70;;
37323;SDS011;23205;49.986;18.950;2023-02-11T04:23:26;50.88;;;20.77;;
37323;SDS011;23205;49.986;18.950;2023-02-11T04:28:27;47.85;;;18.00;;
37323;SDS011;23205;49.986;18.950;2023-02-11T04:33:28;41.00;;;17.05;;
37323;SDS011;23205;49.986;18.950;2023-02-11T04:38:29;39.08;;;16.90;;
37323;SDS011;23205;49.986;18.950;2023-02-11T04:43:30;40.70;;;16.40;;
37323;SDS011;23205;49.986;18.950;2023-02-11T04:48:31;60.17;;;23.13;;
37323;SDS011;23205;49.986;18.950;2023-02-11T04:53:32;31.30;;;13.75;;
37323;SDS011;23205;49.986;18.950;2023-02-11T04:58:32;46.45;;;17.20;;
37323;SDS011;23205;49.986;18.950;2023-02-11T05:03:34;44.33;;;16.17;;
37323;SDS011;23205;49.986;18.950;2023-02-11T05:08:35;53.35;;;22.52;;
37323;SDS011;23205;49.986;18.950;2023-02-11T05:13:36;40.30;;;15.93;;
37323;SDS011;23205;49.986;18.950;2023-02-11T05:18:37;42.60;;;17.77;;
37323;SDS011;23205;49.986;18.950;2023-02-11T05:23:39;41.05;;;15.38;;
37323;SDS011;23205;49.986;18.950;2023-02-11T05:28:40;42.42;;;17.88;;
37323;SDS011;23205;49.986;18.950;2023-02-11T05:33:41;45.10;;;17.48;;
37323;SDS011;23205;49.986;18.950;2023-02-11T05:38:42;43.13;;;18.58;;
37323;SDS011;23205;49.986;18.950;2023-02-11T05:43:43;45.47;;;17.73;;
37323;SDS011;23205;49.986;18.950;2023-02-11T05:48:44;43.80;;;18.05;;
37323;SDS011;23205;49.986;18.950;2023-02-11T05:53:45;48.30;;;18.55;;
37323;SDS011;23205;49.986;18.950;2023-02-11T05:58:45;45.28;;;18.83;;
37323;SDS011;23205;49.986;18.950;2023-02-11T06:03:46;43.42;;;18.48;;
37323;SDS011;23205;49.986;18.950;2023-02-11T06:08:49;40.78;;;16.90;;
37323;SDS011;23205;49.986;18.950;2023-02-11T06:13:50;40.15;;;15.75;;
37323;SDS011;23205;49.986;18.950;2023-02-11T06:18:50;41.90;;;15.93;;
37323;SDS011;23205;49.986;18.950;2023-02-11T06:23:51;38.05;;;15.30;;
37323;SDS011;23205;49.986;18.950;2023-02-11T06:28:52;39.15;;;15.38;;
37323;SDS011;23205;49.986;18.950;2023-02-11T06:33:53;44.33;;;17.05;;
37323;SDS011;23205;49.986;18.950;2023-02-11T06:38:54;44.55;;;17.58;;
37323;SDS011;23205;49.986;18.950;2023-02-11T06:43:55;44.63;;;17.55;;
37323;SDS011;23205;49.986;18.950;2023-02-11T06:48:56;39.65;;;17.25;;
37323;SDS011;23205;49.986;18.950;2023-02-11T06:53:56;46.58;;;18.00;;
37323;SDS011;23205;49.986;18.950;2023-02-11T06:58:57;38.60;;;15.95;;
37323;SDS011;23205;49.986;18.950;2023-02-11T07:03:59;42.88;;;18.23;;
37323;SDS011;23205;49.986;18.950;2023-02-11T07:09:00;39.72;;;16.38;;
37323;SDS011;23205;49.986;18.950;2023-02-11T07:14:02;42.88;;;16.95;;
37323;SDS011;23205;49.986;18.950;2023-02-11T07:19:04;41.90;;;17.33;;
37323;SDS011;23205;49.986;18.950;2023-02-11T07:24:08;41.10;;;16.52;;
37323;SDS011;23205;49.986;18.950;2023-02-11T07:29:09;38.75;;;16.08;;
37323;SDS011;23205;49.986;18.950;2023-02-11T07:34:10;40.83;;;16.70;;
37323;SDS011;23205;49.986;18.950;2023-02-11T07:39:11;39.55;;;17.27;;
37323;SDS011;23205;49.986;18.950;2023-02-11T07:44:12;46.88;;;18.13;;
37323;SDS011;23205;49.986;18.950;2023-02-11T07:49:13;44.10;;;18.75;;
37323;SDS011;23205;49.986;18.950;2023-02-11T07:54:15;49.42;;;19.65;;
37323;SDS011;23205;49.986;18.950;2023-02-11T07:59:16;40.45;;;18.33;;
37323;SDS011;23205;49.986;18.950;2023-02-11T08:04:17;43.38;;;18.35;;
37323;SDS011;23205;49.986;18.950;2023-02-11T08:09:18;40.75;;;16.77;;
37323;SDS011;23205;49.986;18.950;2023-02-11T08:14:19;42.40;;;17.52;;
37323;SDS011;23205;49.986;18.950;2023-02-11T08:19:21;48.10;;;19.35;;
37323;SDS011;23205;49.986;18.950;2023-02-11T08:24:22;39.95;;;18.83;;
37323;SDS011;23205;49.986;18.950;2023-02-11T08:29:23;44.80;;;18.83;;
37323;SDS011;23205;49.986;18.950;2023-02-11T08:34:24;53.05;;;21.75;;
37323;SDS011;23205;49.986;18.950;2023-02-11T08:39:25;49.60;;;21.50;;
37323;SDS011;23205;49.986;18.950;2023-02-11T08:44:26;51.00;;;22.38;;
37323;SDS011;23205;49.986;18.950;2023-02-11T08:49:27;48.05;;;19.08;;
37323;SDS011;23205;49.986;18.950;2023-02-11T08:54:30;52.72;;;22.80;;
37323;SDS011;23205;49.986;18.950;2023-02-11T08:59:31;42.08;;;18.10;;
37323;SDS011;23205;49.986;18.950;2023-02-11T09:04:32;42.47;;;18.58;;
37323;SDS011;23205;49.986;18.950;2023-02-11T09:09:33;36.28;;;15.20;;
37323;SDS011;23205;49.986;18.950;2023-02-11T09:14:34;42.08;;;17.98;;
37323;SDS011;23205;49.986;18.950;2023-02-11T09:19:35;46.05;;;19.95;;
37323;SDS011;23205;49.986;18.950;2023-02-11T09:24:36;42.00;;;18.50;;
37323;SDS011;23205;49.986;18.950;2023-02-11T09:29:37;43.75;;;19.00;;
37323;SDS011;23205;49.986;18.950;2023-02-11T09:34:38;47.55;;;19.90;;
37323;SDS011;23205;49.986;18.950;2023-02-11T09:39:38;40.90;;;17.75;;
37323;SDS011;23205;49.986;18.950;2023-02-11T09:44:40;42.17;;;17.10;;
37323;SDS011;23205;49.986;18.950;2023-02-11T09:49:46;41.42;;;17.95;;
37323;SDS011;23205;49.986;18.950;2023-02-11T09:54:55;41.88;;;17.75;;
37323;SDS011;23205;49.986;18.950;2023-02-11T09:59:57;44.45;;;18.58;;
37323;SDS011;23205;49.986;18.950;2023-02-11T10:25:22;42.22;;;18.00;;
37323;SDS011;23205;49.986;18.950;2023-02-11T10:35:45;42.65;;;19.25;;
37323;SDS011;23205;49.986;18.950;2023-02-11T10:40:46;41.78;;;17.77;;
37323;SDS011;23205;49.986;18.950;2023-02-11T10:45:50;41.17;;;18.10;;
37323;SDS011;23205;49.986;18.950;2023-02-11T10:56:25;38.03;;;17.70;;
37323;SDS011;23205;49.986;18.950;2023-02-11T11:01:41;37.42;;;18.13;;
37323;SDS011;23205;49.986;18.950;2023-02-11T11:06:43;40.22;;;19.02;;
37323;SDS011;23205;49.986;18.950;2023-02-11T11:11:50;37.08;;;17.13;;
37323;SDS011;23205;49.986;18.950;2023-02-11T11:16:53;40.58;;;17.40;;
37323;SDS011;23205;49.986;18.950;2023-02-11T11:21:55;37.25;;;17.55;;
37323;SDS011;23205;49.986;18.950;2023-02-11T11:26:57;36.65;;;16.52;;
37323;SDS011;23205;49.986;18.950;2023-02-11T11:32:02;42.10;;;17.63;;
37323;SDS011;23205;49.986;18.950;2023-02-11T11:37:26;40.00;;;18.77;;
37323;SDS011;23205;49.986;18.950;2023-02-11T11:42:31;37.05;;;15.50;;
37323;SDS011;23205;49.986;18.950;2023-02-11T11:47:42;43.97;;;19.67;;
37323;SDS011;23205;49.986;18.950;2023-02-11T11:58:04;44.10;;;18.65;;
37323;SDS011;23205;49.986;18.950;2023-02-11T12:03:35;44.25;;;19.17;;
37323;SDS011;23205;49.986;18.950;2023-02-11T12:24:41;42.25;;;18.85;;
37323;SDS011;23205;49.986;18.950;2023-02-11T12:35:15;45.90;;;21.00;;
37323;SDS011;23205;49.986;18.950;2023-02-11T12:40:27;45.22;;;19.45;;
37323;SDS011;23205;49.986;18.950;2023-02-11T12:50:52;45.88;;;19.08;;
37323;SDS011;23205;49.986;18.950;2023-02-11T12:56:32;44.95;;;19.25;;
37323;SDS011;23205;49.986;18.950;2023-02-11T13:01:34;40.15;;;17.40;;
37323;SDS011;23205;49.986;18.950;2023-02-11T13:06:39;43.78;;;18.48;;
37323;SDS011;23205;49.986;18.950;2023-02-11T13:11:47;43.88;;;19.50;;
37323;SDS011;23205;49.986;18.950;2023-02-11T13:16:53;47.22;;;19.15;;
37323;SDS011;23205;49.986;18.950;2023-02-11T13:38:18;41.47;;;17.95;;
37323;SDS011;23205;49.986;18.950;2023-02-11T13:43:19;43.22;;;19.00;;
37323;SDS011;23205;49.986;18.950;2023-02-11T13:48:30;50.25;;;21.33;;
37323;SDS011;23205;49.986;18.950;2023-02-11T13:53:53;47.60;;;21.23;;
37323;SDS011;23205;49.986;18.950;2023-02-11T13:58:57;47.60;;;21.25;;
37323;SDS011;23205;49.986;18.950;2023-02-11T14:04:20;47.17;;;21.45;;
37323;SDS011;23205;49.986;18.950;2023-02-11T14:09:42;53.00;;;22.70;;
37323;SDS011;23205;49.986;18.950;2023-02-11T14:14:59;49.85;;;21.38;;
37323;SDS011;23205;49.986;18.950;2023-02-11T14:20:37;50.20;;;20.23;;
37323;SDS011;23205;49.986;18.950;2023-02-11T14:25:42;58.65;;;20.55;;
37323;SDS011;23205;49.986;18.950;2023-02-11T14:30:55;53.83;;;22.73;;
37323;SDS011;23205;49.986;18.950;2023-02-11T14:41:23;51.53;;;21.50;;
37323;SDS011;23205;49.986;18.950;2023-02-11T14:46:26;54.42;;;23.05;;
37323;SDS011;23205;49.986;18.950;2023-02-11T14:51:33;52.13;;;22.23;;
37323;SDS011;23205;49.986;18.950;2023-02-11T14:56:36;54.35;;;22.52;;
37323;SDS011;23205;49.986;18.950;2023-02-11T15:01:40;53.80;;;22.98;;
37323;SDS011;23205;49.986;18.950;2023-02-11T15:06:45;57.50;;;24.52;;
37323;SDS011;23205;49.986;18.950;2023-02-11T15:11:49;61.58;;;25.05;;
37323;SDS011;23205;49.986;18.950;2023-02-11T15:16:51;53.28;;;22.52;;
37323;SDS011;23205;49.986;18.950;2023-02-11T15:21:55;52.40;;;21.17;;
37323;SDS011;23205;49.986;18.950;2023-02-11T15:32:20;55.55;;;23.58;;
37323;SDS011;23205;49.986;18.950;2023-02-11T15:37:26;60.47;;;24.25;;
37323;SDS011;23205;49.986;18.950;2023-02-11T15:42:30;50.35;;;22.13;;
37323;SDS011;23205;49.986;18.950;2023-02-11T15:47:30;52.33;;;22.45;;
37323;SDS011;23205;49.986;18.950;2023-02-11T15:52:32;52.90;;;21.52;;
37323;SDS011;23205;49.986;18.950;2023-02-11T15:57:33;58.03;;;23.10;;
37323;SDS011;23205;49.986;18.950;2023-02-11T16:02:34;53.03;;;24.45;;
37323;SDS011;23205;49.986;18.950;2023-02-11T16:12:51;63.80;;;27.27;;
37323;SDS011;23205;49.986;18.950;2023-02-11T16:18:02;57.38;;;23.40;;
37323;SDS011;23205;49.986;18.950;2023-02-11T16:23:24;59.17;;;27.10;;
37323;SDS011;23205;49.986;18.950;2023-02-11T16:28:35;70.10;;;29.00;;
37323;SDS011;23205;49.986;18.950;2023-02-11T16:33:36;83.60;;;35.78;;
37323;SDS011;23205;49.986;18.950;2023-02-11T16:38:37;72.72;;;32.83;;
37323;SDS011;23205;49.986;18.950;2023-02-11T16:43:38;77.65;;;34.15;;
37323;SDS011;23205;49.986;18.950;2023-02-11T16:48:39;68.40;;;30.80;;
37323;SDS011;23205;49.986;18.950;2023-02-11T16:53:40;81.28;;;32.58;;
37323;SDS011;23205;49.986;18.950;2023-02-11T16:58:41;74.85;;;32.00;;
37323;SDS011;23205;49.986;18.950;2023-02-11T17:03:43;81.00;;;33.75;;
37323;SDS011;23205;49.986;18.950;2023-02-11T17:08:44;73.18;;;31.00;;
37323;SDS011;23205;49.986;18.950;2023-02-11T17:13:47;83.90;;;34.03;;
37323;SDS011;23205;49.986;18.950;2023-02-11T17:18:48;92.93;;;41.80;;
37323;SDS011;23205;49.986;18.950;2023-02-11T17:23:49;82.80;;;34.30;;
37323;SDS011;23205;49.986;18.950;2023-02-11T17:28:49;84.28;;;33.45;;
37323;SDS011;23205;49.986;18.950;2023-02-11T17:33:50;85.68;;;38.03;;
37323;SDS011;23205;49.986;18.950;2023-02-11T17:38:53;75.20;;;30.02;;
37323;SDS011;23205;49.986;18.950;2023-02-11T17:43:57;94.45;;;43.85;;
37323;SDS011;23205;49.986;18.950;2023-02-11T17:48:59;84.32;;;35.63;;
37323;SDS011;23205;49.986;18.950;2023-02-11T17:54:02;91.90;;;40.08;;
37323;SDS011;23205;49.986;18.950;2023-02-11T17:59:05;92.95;;;38.17;;
37323;SDS011;23205;49.986;18.950;2023-02-11T18:04:09;83.95;;;37.42;;
37323;SDS011;23205;49.986;18.950;2023-02-11T18:09:18;93.75;;;39.83;;
37323;SDS011;23205;49.986;18.950;2023-02-11T18:14:20;90.60;;;37.15;;
37323;SDS011;23205;49.986;18.950;2023-02-11T18:19:22;92.28;;;37.53;;
37323;SDS011;23205;49.986;18.950;2023-02-11T18:24:25;81.85;;;33.70;;
37323;SDS011;23205;49.986;18.950;2023-02-11T18:29:26;90.72;;;38.40;;
37323;SDS011;23205;49.986;18.950;2023-02-11T18:34:27;79.93;;;33.88;;
37323;SDS011;23205;49.986;18.950;2023-02-11T18:39:28;91.45;;;36.30;;
37323;SDS011;23205;49.986;18.950;2023-02-11T18:44:29;87.22;;;36.40;;
37323;SDS011;23205;49.986;18.950;2023-02-11T18:49:30;91.20;;;37.03;;
37323;SDS011;23205;49.986;18.950;2023-02-11T18:54:32;86.13;;;34.58;;
37323;SDS011;23205;49.986;18.950;2023-02-11T18:59:33;87.40;;;36.95;;
37323;SDS011;23205;49.986;18.950;2023-02-11T19:04:34;81.55;;;34.10;;
37323;SDS011;23205;49.986;18.950;2023-02-11T19:09:36;94.97;;;40.00;;
37323;SDS011;23205;49.986;18.950;2023-02-11T19:14:37;91.00;;;37.28;;
37323;SDS011;23205;49.986;18.950;2023-02-11T19:19:38;77.47;;;33.08;;
37323;SDS011;23205;49.986;18.950;2023-02-11T19:24:40;79.97;;;35.50;;
37323;SDS011;23205;49.986;18.950;2023-02-11T19:29:41;86.13;;;34.33;;
37323;SDS011;23205;49.986;18.950;2023-02-11T19:34:41;93.50;;;37.40;;
37323;SDS011;23205;49.986;18.950;2023-02-11T19:39:42;82.28;;;36.38;;
37323;SDS011;23205;49.986;18.950;2023-02-11T19:44:44;87.10;;;35.67;;
37323;SDS011;23205;49.986;18.950;2023-02-11T19:49:45;85.57;;;35.90;;
37323;SDS011;23205;49.986;18.950;2023-02-11T19:54:46;85.30;;;37.17;;
37323;SDS011;23205;49.986;18.950;2023-02-11T19:59:47;89.78;;;36.95;;
37323;SDS011;23205;49.986;18.950;2023-02-11T20:04:48;91.22;;;40.50;;
37323;SDS011;23205;49.986;18.950;2023-02-11T20:09:49;86.93;;;37.45;;
37323;SDS011;23205;49.986;18.950;2023-02-11T20:14:52;94.72;;;40.70;;
37323;SDS011;23205;49.986;18.950;2023-02-11T20:19:53;86.03;;;38.20;;
37323;SDS011;23205;49.986;18.950;2023-02-11T20:24:54;91.72;;;36.63;;
37323;SDS011;23205;49.986;18.950;2023-02-11T20:29:55;85.90;;;35.65;;
37323;SDS011;23205;49.986;18.950;2023-02-11T20:34:56;86.00;;;37.50;;
37323;SDS011;23205;49.986;18.950;2023-02-11T20:39:57;87.03;;;36.65;;
37323;SDS011;23205;49.986;18.950;2023-02-11T20:44:58;90.20;;;40.03;;
37323;SDS011;23205;49.986;18.950;2023-02-11T20:49:59;86.53;;;37.00;;
37323;SDS011;23205;49.986;18.950;2023-02-11T20:54:59;78.38;;;34.88;;
37323;SDS011;23205;49.986;18.950;2023-02-11T21:00:01;87.88;;;37.70;;
37323;SDS011;23205;49.986;18.950;2023-02-11T21:05:02;85.78;;;36.05;;
37323;SDS011;23205;49.986;18.950;2023-02-11T21:10:03;85.18;;;39.05;;
37323;SDS011;23205;49.986;18.950;2023-02-11T21:15:05;90.15;;;40.58;;
37323;SDS011;23205;49.986;18.950;2023-02-11T21:20:09;80.88;;;35.00;;
37323;SDS011;23205;49.986;18.950;2023-02-11T21:25:10;82.80;;;38.47;;
37323;SDS011;23205;49.986;18.950;2023-02-11T21:30:11;83.00;;;36.63;;
37323;SDS011;23205;49.986;18.950;2023-02-11T21:35:16;78.80;;;36.40;;
37323;SDS011;23205;49.986;18.950;2023-02-11T21:40:17;81.65;;;36.60;;
37323;SDS011;23205;49.986;18.950;2023-02-11T21:45:18;78.35;;;34.45;;
37323;SDS011;23205;49.986;18.950;2023-02-11T21:50:19;78.88;;;35.47;;
37323;SDS011;23205;49.986;18.950;2023-02-11T21:55:20;82.72;;;35.42;;
37323;SDS011;23205;49.986;18.950;2023-02-11T22:00:21;80.93;;;36.08;;
37323;SDS011;23205;49.986;18.950;2023-02-11T22:05:22;78.47;;;34.03;;
37323;SDS011;23205;49.986;18.950;2023-02-11T22:10:23;89.45;;;38.63;;
37323;SDS011;23205;49.986;18.950;2023-02-11T22:15:25;81.30;;;34.08;;
37323;SDS011;23205;49.986;18.950;2023-02-11T22:20:26;81.50;;;35.40;;
37323;SDS011;23205;49.986;18.950;2023-02-11T22:25:27;79.03;;;34.35;;
37323;SDS011;23205;49.986;18.950;2023-02-11T22:30:27;82.07;;;36.60;;
37323;SDS011;23205;49.986;18.950;2023-02-11T22:35:28;83.40;;;35.03;;
37323;SDS011;23205;49.986;18.950;2023-02-11T22:40:29;83.28;;;34.35;;
37323;SDS011;23205;49.986;18.950;2023-02-11T22:45:32;80.65;;;37.70;;
37323;SDS011;23205;49.986;18.950;2023-02-11T22:50:33;78.47;;;36.35;;
37323;SDS011;23205;49.986;18.950;2023-02-11T22:55:35;83.35;;;37.67;;
37323;SDS011;23205;49.986;18.950;2023-02-11T23:00:38;89.60;;;37.85;;
37323;SDS011;23205;49.986;18.950;2023-02-11T23:05:41;90.53;;;36.85;;
37323;SDS011;23205;49.986;18.950;2023-02-11T23:10:42;92.00;;;37.95;;
37323;SDS011;23205;49.986;18.950;2023-02-11T23:15:43;94.88;;;40.67;;
37323;SDS011;23205;49.986;18.950;2023-02-11T23:20:45;88.65;;;38.72;;
37323;SDS011;23205;49.986;18.950;2023-02-11T23:25:46;95.43;;;42.38;;
37323;SDS011;23205;49.986;18.950;2023-02-11T23:30:47;92.32;;;41.03;;
37323;SDS011;23205;49.986;18.950;2023-02-11T23:35:48;82.45;;;35.92;;
37323;SDS011;23205;49.986;18.950;2023-02-11T23:40:49;83.82;;;35.40;;
37323;SDS011;23205;49.986;18.950;2023-02-11T23:45:50;85.28;;;38.92;;
37323;SDS011;23205;49.986;18.950;2023-02-11T23:50:51;80.28;;;35.17;;
37323;SDS011;23205;49.986;18.950;2023-02-11T23:55:52;75.85;;;35.40;;
